Бехтеевка

Карта отелей и гостиниц, располагающихся рядом с аэропортом Бехтеевка :



Бехтеевка Белгородская область 50° 47' 9.96" N, 37° 16' 9.9588" E

Бехтеевка Белгородская область 50° 47' 9.96" N, 37° 16' 9.9588" E
Код аэродрома ИКАО: 
ZB7F
Код аэродрома RU: 
ЗБ7Ф
Координаты: 
N50.78610° E037.26943°
Превышение над уровнем моря : 
245
Основная полоса: 
12/30
Курс магнитный: 
118,8/298,8
Длина основной ВПП: 
420
Ширина основной ВПП: 
20
Покрытие основной ВПП: 
Твёрдое (асфальт)
Тип: 
Аэродром
Освещение ВПП: 
Нет
Класс аэродрома: 
Статус: 
Недействующий
Принадлежность: 
ГА
Сайт: 
E-mail аэродрома: 
Страна: 
Россия
Регион: 
Белгородская область
Город: 
Дополнительная информация: 
Площадка АХР.

Найти трансфер

С помощью этой формы Вы можете найти трансфер из аэропорта Бехтеевка в город, аэропорт или вокзал:

Карта места

Javascript is required to view this map.

Погода в аэропортах:

Авиационная погода в Елизово

Регион: 
Погода METAR: 
UHPP 042300Z 18002MPS 150V210 9999 -SHRA BKN009 OVC016CB 09/09 Q1019 R16R/290250 NOSIG RMK MT OBSC QFE761/1015
Время наблюдения: 
2020-06-04T23:00:00Z
Температура C: 
9.0
Точка росы: 
9.0
Направление ветра: 
180
Скорость ветра: 
4
Метеорологическая видимость: 
6.21
Явления погоды: 
-SHRA
Условия полета: 
IFR
Аэропорт подробнее: 

Авиационная погода в Йоэнсуу

Регион: 
Погода METAR: 
EFJO 042250Z AUTO 09008KT 050V120 6000 -SHRA OVC005 12/11 Q1001
Время наблюдения: 
2020-06-04T22:50:00Z
Температура C: 
12.0
Точка росы: 
11.0
Направление ветра: 
90
Скорость ветра: 
8
Метеорологическая видимость: 
3.73
Явления погоды: 
-SHRA
Условия полета: 
IFR

Авиационная погода в Толмачево

Регион: 
Погода METAR: 
UNNT 042300Z 26002MPS 9999 -SHRA BKN040CB 06/05 Q1006 R25/090070 R16/090070 NOSIG RMK QFE745/0993
Время наблюдения: 
2020-06-04T23:00:00Z
Температура C: 
6.0
Точка росы: 
5.0
Направление ветра: 
260
Скорость ветра: 
4
Метеорологическая видимость: 
6.21
Явления погоды: 
-SHRA
Условия полета: 
VFR
Аэропорт подробнее: 

Авиационная погода в Краснодаре

Регион: 
Погода METAR: 
URKK 042300Z 26002MPS 5000 BR NSC 14/13 Q1017 R23L/CLRD70 TEMPO 0200 FG OVC002 RMK QFE760
Время наблюдения: 
2020-06-04T23:00:00Z
Температура C: 
14.0
Точка росы: 
13.0
Направление ветра: 
260
Скорость ветра: 
4
Метеорологическая видимость: 
3.11
Явления погоды: 
BR
Условия полета: 
MVFR
Аэропорт подробнее: